sensor_id;sensor_type;location;lat;lon;timestamp;P1;durP1;ratioP1;P2;durP2;ratioP2
31652;SDS011;18261;53.648;9.910;2023-11-18T00:00:31;14.70;;;9.77;;
31652;SDS011;18261;53.648;9.910;2023-11-18T00:02:58;14.55;;;9.52;;
31652;SDS011;18261;53.648;9.910;2023-11-18T00:05:24;15.05;;;9.20;;
31652;SDS011;18261;53.648;9.910;2023-11-18T00:07:50;12.40;;;8.60;;
31652;SDS011;18261;53.648;9.910;2023-11-18T00:10:16;18.83;;;9.45;;
31652;SDS011;18261;53.648;9.910;2023-11-18T00:12:42;14.20;;;9.07;;
31652;SDS011;18261;53.648;9.910;2023-11-18T00:15:09;16.13;;;9.38;;
31652;SDS011;18261;53.648;9.910;2023-11-18T00:17:39;13.50;;;8.63;;
31652;SDS011;18261;53.648;9.910;2023-11-18T00:20:05;14.65;;;8.80;;
31652;SDS011;18261;53.648;9.910;2023-11-18T00:22:38;15.18;;;9.32;;
31652;SDS011;18261;53.648;9.910;2023-11-18T00:25:04;12.43;;;8.25;;
31652;SDS011;18261;53.648;9.910;2023-11-18T00:27:31;13.65;;;9.20;;
31652;SDS011;18261;53.648;9.910;2023-11-18T00:29:57;12.70;;;8.75;;
31652;SDS011;18261;53.648;9.910;2023-11-18T00:32:23;17.52;;;9.40;;
31652;SDS011;18261;53.648;9.910;2023-11-18T00:34:48;14.18;;;8.25;;
31652;SDS011;18261;53.648;9.910;2023-11-18T00:37:14;18.02;;;9.52;;
31652;SDS011;18261;53.648;9.910;2023-11-18T00:39:40;13.95;;;9.38;;
31652;SDS011;18261;53.648;9.910;2023-11-18T00:42:06;17.00;;;8.93;;
31652;SDS011;18261;53.648;9.910;2023-11-18T00:44:32;14.65;;;8.18;;
31652;SDS011;18261;53.648;9.910;2023-11-18T00:46:59;16.63;;;9.60;;
31652;SDS011;18261;53.648;9.910;2023-11-18T00:49:25;13.70;;;9.18;;
31652;SDS011;18261;53.648;9.910;2023-11-18T00:51:51;15.05;;;9.63;;
31652;SDS011;18261;53.648;9.910;2023-11-18T00:54:17;15.73;;;9.40;;
31652;SDS011;18261;53.648;9.910;2023-11-18T00:56:44;20.63;;;10.57;;
31652;SDS011;18261;53.648;9.910;2023-11-18T00:59:10;14.80;;;9.45;;
31652;SDS011;18261;53.648;9.910;2023-11-18T01:01:36;16.65;;;9.98;;
31652;SDS011;18261;53.648;9.910;2023-11-18T01:04:02;18.33;;;10.07;;
31652;SDS011;18261;53.648;9.910;2023-11-18T01:06:28;18.90;;;9.82;;
31652;SDS011;18261;53.648;9.910;2023-11-18T01:08:54;17.70;;;9.73;;
31652;SDS011;18261;53.648;9.910;2023-11-18T01:11:20;16.35;;;10.10;;
31652;SDS011;18261;53.648;9.910;2023-11-18T01:13:49;17.88;;;10.23;;
31652;SDS011;18261;53.648;9.910;2023-11-18T01:16:16;17.20;;;10.35;;
31652;SDS011;18261;53.648;9.910;2023-11-18T01:18:42;16.17;;;9.75;;
31652;SDS011;18261;53.648;9.910;2023-11-18T01:21:08;15.50;;;9.65;;
31652;SDS011;18261;53.648;9.910;2023-11-18T01:23:35;14.13;;;9.55;;
31652;SDS011;18261;53.648;9.910;2023-11-18T01:26:02;15.20;;;9.23;;
31652;SDS011;18261;53.648;9.910;2023-11-18T01:28:31;17.25;;;10.38;;
31652;SDS011;18261;53.648;9.910;2023-11-18T01:31:01;16.42;;;9.60;;
31652;SDS011;18261;53.648;9.910;2023-11-18T01:33:28;19.25;;;10.02;;
31652;SDS011;18261;53.648;9.910;2023-11-18T01:35:55;20.55;;;9.60;;
31652;SDS011;18261;53.648;9.910;2023-11-18T01:38:21;14.43;;;9.18;;
31652;SDS011;18261;53.648;9.910;2023-11-18T01:40:47;18.17;;;10.00;;
31652;SDS011;18261;53.648;9.910;2023-11-18T01:43:13;16.48;;;10.65;;
31652;SDS011;18261;53.648;9.910;2023-11-18T01:45:40;17.55;;;9.30;;
31652;SDS011;18261;53.648;9.910;2023-11-18T01:48:07;16.48;;;10.13;;
31652;SDS011;18261;53.648;9.910;2023-11-18T01:50:37;17.50;;;10.00;;
31652;SDS011;18261;53.648;9.910;2023-11-18T01:53:05;14.88;;;10.07;;
31652;SDS011;18261;53.648;9.910;2023-11-18T01:55:32;14.90;;;9.57;;
31652;SDS011;18261;53.648;9.910;2023-11-18T01:57:59;14.00;;;9.57;;
31652;SDS011;18261;53.648;9.910;2023-11-18T02:00:28;14.10;;;9.32;;
31652;SDS011;18261;53.648;9.910;2023-11-18T02:02:55;14.85;;;9.57;;
31652;SDS011;18261;53.648;9.910;2023-11-18T02:05:21;15.57;;;9.90;;
31652;SDS011;18261;53.648;9.910;2023-11-18T02:07:47;15.15;;;9.63;;
31652;SDS011;18261;53.648;9.910;2023-11-18T02:10:13;16.02;;;9.98;;
31652;SDS011;18261;53.648;9.910;2023-11-18T02:13:14;15.02;;;9.93;;
31652;SDS011;18261;53.648;9.910;2023-11-18T02:15:33;17.25;;;9.15;;
31652;SDS011;18261;53.648;9.910;2023-11-18T02:18:01;15.10;;;9.40;;
31652;SDS011;18261;53.648;9.910;2023-11-18T02:20:30;15.40;;;9.13;;
31652;SDS011;18261;53.648;9.910;2023-11-18T02:22:56;15.82;;;9.75;;
31652;SDS011;18261;53.648;9.910;2023-11-18T02:25:23;14.57;;;9.18;;
31652;SDS011;18261;53.648;9.910;2023-11-18T02:27:52;15.10;;;8.60;;
31652;SDS011;18261;53.648;9.910;2023-11-18T02:30:19;17.65;;;9.20;;
31652;SDS011;18261;53.648;9.910;2023-11-18T02:35:24;16.08;;;9.55;;
31652;SDS011;18261;53.648;9.910;2023-11-18T02:37:52;16.92;;;8.95;;
31652;SDS011;18261;53.648;9.910;2023-11-18T02:40:20;17.10;;;9.45;;
31652;SDS011;18261;53.648;9.910;2023-11-18T02:42:49;15.15;;;9.38;;
31652;SDS011;18261;53.648;9.910;2023-11-18T02:45:18;15.00;;;9.18;;
31652;SDS011;18261;53.648;9.910;2023-11-18T02:47:45;12.93;;;9.20;;
31652;SDS011;18261;53.648;9.910;2023-11-18T02:50:11;13.63;;;8.93;;
31652;SDS011;18261;53.648;9.910;2023-11-18T02:52:38;16.30;;;9.63;;
31652;SDS011;18261;53.648;9.910;2023-11-18T02:55:05;15.30;;;9.43;;
31652;SDS011;18261;53.648;9.910;2023-11-18T02:57:37;16.77;;;9.60;;
31652;SDS011;18261;53.648;9.910;2023-11-18T03:00:04;19.20;;;9.43;;
31652;SDS011;18261;53.648;9.910;2023-11-18T03:02:30;15.00;;;9.10;;
31652;SDS011;18261;53.648;9.910;2023-11-18T03:04:57;13.70;;;8.88;;
31652;SDS011;18261;53.648;9.910;2023-11-18T03:07:23;13.82;;;9.00;;
31652;SDS011;18261;53.648;9.910;2023-11-18T03:09:49;15.85;;;10.20;;
31652;SDS011;18261;53.648;9.910;2023-11-18T03:12:15;16.70;;;9.18;;
31652;SDS011;18261;53.648;9.910;2023-11-18T03:14:41;13.95;;;9.35;;
31652;SDS011;18261;53.648;9.910;2023-11-18T03:17:08;14.65;;;9.57;;
31652;SDS011;18261;53.648;9.910;2023-11-18T03:19:35;14.63;;;8.88;;
31652;SDS011;18261;53.648;9.910;2023-11-18T03:22:01;14.27;;;9.48;;
31652;SDS011;18261;53.648;9.910;2023-11-18T03:24:28;12.50;;;9.07;;
31652;SDS011;18261;53.648;9.910;2023-11-18T03:26:55;14.43;;;9.43;;
31652;SDS011;18261;53.648;9.910;2023-11-18T03:29:21;13.85;;;9.18;;
31652;SDS011;18261;53.648;9.910;2023-11-18T03:31:47;53.38;;;26.55;;
31652;SDS011;18261;53.648;9.910;2023-11-18T03:34:17;48.17;;;23.00;;
31652;SDS011;18261;53.648;9.910;2023-11-18T03:36:45;17.92;;;10.32;;
31652;SDS011;18261;53.648;9.910;2023-11-18T03:39:12;17.42;;;10.20;;
31652;SDS011;18261;53.648;9.910;2023-11-18T03:41:38;18.90;;;10.90;;
31652;SDS011;18261;53.648;9.910;2023-11-18T03:44:04;15.23;;;9.52;;
31652;SDS011;18261;53.648;9.910;2023-11-18T03:46:30;14.45;;;9.48;;
31652;SDS011;18261;53.648;9.910;2023-11-18T03:48:59;14.55;;;10.20;;
31652;SDS011;18261;53.648;9.910;2023-11-18T03:51:26;16.70;;;10.35;;
31652;SDS011;18261;53.648;9.910;2023-11-18T03:53:51;16.40;;;10.18;;
31652;SDS011;18261;53.648;9.910;2023-11-18T03:56:18;15.18;;;10.35;;
31652;SDS011;18261;53.648;9.910;2023-11-18T03:58:44;19.25;;;10.68;;
31652;SDS011;18261;53.648;9.910;2023-11-18T04:01:18;16.25;;;10.75;;
31652;SDS011;18261;53.648;9.910;2023-11-18T04:03:45;17.83;;;11.15;;
31652;SDS011;18261;53.648;9.910;2023-11-18T04:06:11;19.17;;;11.55;;
31652;SDS011;18261;53.648;9.910;2023-11-18T04:08:38;19.98;;;10.52;;
31652;SDS011;18261;53.648;9.910;2023-11-18T04:11:04;16.80;;;11.23;;
31652;SDS011;18261;53.648;9.910;2023-11-18T04:13:30;15.52;;;10.82;;
31652;SDS011;18261;53.648;9.910;2023-11-18T04:15:56;18.85;;;11.20;;
31652;SDS011;18261;53.648;9.910;2023-11-18T04:18:22;16.25;;;10.82;;
31652;SDS011;18261;53.648;9.910;2023-11-18T04:20:49;16.83;;;10.55;;
31652;SDS011;18261;53.648;9.910;2023-11-18T04:23:15;16.05;;;10.57;;
31652;SDS011;18261;53.648;9.910;2023-11-18T04:25:41;16.48;;;10.70;;
31652;SDS011;18261;53.648;9.910;2023-11-18T04:28:07;18.67;;;11.82;;
31652;SDS011;18261;53.648;9.910;2023-11-18T04:30:33;16.98;;;11.43;;
31652;SDS011;18261;53.648;9.910;2023-11-18T04:32:59;17.52;;;11.13;;
31652;SDS011;18261;53.648;9.910;2023-11-18T04:35:25;17.40;;;11.13;;
31652;SDS011;18261;53.648;9.910;2023-11-18T04:37:51;17.85;;;11.68;;
31652;SDS011;18261;53.648;9.910;2023-11-18T04:40:17;17.25;;;11.05;;
31652;SDS011;18261;53.648;9.910;2023-11-18T04:42:43;16.70;;;10.57;;
31652;SDS011;18261;53.648;9.910;2023-11-18T04:45:09;15.95;;;10.57;;
31652;SDS011;18261;53.648;9.910;2023-11-18T04:47:36;17.75;;;10.82;;
31652;SDS011;18261;53.648;9.910;2023-11-18T04:50:03;17.27;;;11.23;;
31652;SDS011;18261;53.648;9.910;2023-11-18T04:52:29;18.17;;;10.70;;
31652;SDS011;18261;53.648;9.910;2023-11-18T04:54:57;19.23;;;11.30;;
31652;SDS011;18261;53.648;9.910;2023-11-18T04:57:25;16.67;;;11.32;;
31652;SDS011;18261;53.648;9.910;2023-11-18T04:59:51;17.40;;;11.02;;
31652;SDS011;18261;53.648;9.910;2023-11-18T05:02:17;17.77;;;11.00;;
31652;SDS011;18261;53.648;9.910;2023-11-18T05:04:43;17.00;;;11.05;;
31652;SDS011;18261;53.648;9.910;2023-11-18T05:07:09;16.60;;;11.18;;
31652;SDS011;18261;53.648;9.910;2023-11-18T05:09:35;17.35;;;10.25;;
31652;SDS011;18261;53.648;9.910;2023-11-18T05:12:02;17.20;;;11.15;;
31652;SDS011;18261;53.648;9.910;2023-11-18T05:14:28;17.40;;;10.73;;
31652;SDS011;18261;53.648;9.910;2023-11-18T05:16:54;17.88;;;11.02;;
31652;SDS011;18261;53.648;9.910;2023-11-18T05:19:20;17.65;;;10.85;;
31652;SDS011;18261;53.648;9.910;2023-11-18T05:21:46;17.48;;;11.43;;
31652;SDS011;18261;53.648;9.910;2023-11-18T05:24:14;20.65;;;11.60;;
31652;SDS011;18261;53.648;9.910;2023-11-18T05:26:40;18.92;;;12.65;;
31652;SDS011;18261;53.648;9.910;2023-11-18T05:29:06;19.52;;;12.00;;
31652;SDS011;18261;53.648;9.910;2023-11-18T05:31:32;20.38;;;11.90;;
31652;SDS011;18261;53.648;9.910;2023-11-18T05:33:58;17.38;;;11.55;;
31652;SDS011;18261;53.648;9.910;2023-11-18T05:36:24;18.17;;;11.30;;
31652;SDS011;18261;53.648;9.910;2023-11-18T05:38:55;17.70;;;12.05;;
31652;SDS011;18261;53.648;9.910;2023-11-18T05:41:22;18.48;;;11.75;;
31652;SDS011;18261;53.648;9.910;2023-11-18T05:46:25;21.38;;;12.70;;
31652;SDS011;18261;53.648;9.910;2023-11-18T05:48:54;20.10;;;12.15;;
31652;SDS011;18261;53.648;9.910;2023-11-18T05:51:21;19.13;;;11.63;;
31652;SDS011;18261;53.648;9.910;2023-11-18T05:53:48;18.40;;;11.65;;
31652;SDS011;18261;53.648;9.910;2023-11-18T05:56:14;18.10;;;11.82;;
31652;SDS011;18261;53.648;9.910;2023-11-18T05:58:43;18.77;;;11.93;;
31652;SDS011;18261;53.648;9.910;2023-11-18T06:01:09;21.30;;;12.02;;
31652;SDS011;18261;53.648;9.910;2023-11-18T06:03:37;19.80;;;11.90;;
31652;SDS011;18261;53.648;9.910;2023-11-18T06:06:04;20.33;;;12.45;;
31652;SDS011;18261;53.648;9.910;2023-11-18T06:08:32;22.88;;;12.80;;
31652;SDS011;18261;53.648;9.910;2023-11-18T06:10:58;22.67;;;13.05;;
31652;SDS011;18261;53.648;9.910;2023-11-18T06:13:24;19.55;;;13.10;;
31652;SDS011;18261;53.648;9.910;2023-11-18T06:15:52;20.65;;;13.07;;
31652;SDS011;18261;53.648;9.910;2023-11-18T06:18:18;23.52;;;14.35;;
31652;SDS011;18261;53.648;9.910;2023-11-18T06:20:44;22.13;;;13.32;;
31652;SDS011;18261;53.648;9.910;2023-11-18T06:23:10;24.67;;;12.98;;
31652;SDS011;18261;53.648;9.910;2023-11-18T06:25:36;22.30;;;13.05;;
31652;SDS011;18261;53.648;9.910;2023-11-18T06:28:03;24.95;;;12.90;;
31652;SDS011;18261;53.648;9.910;2023-11-18T06:30:29;23.42;;;13.95;;
31652;SDS011;18261;53.648;9.910;2023-11-18T06:32:55;21.00;;;13.13;;
31652;SDS011;18261;53.648;9.910;2023-11-18T06:35:21;22.35;;;13.30;;
31652;SDS011;18261;53.648;9.910;2023-11-18T06:37:47;20.38;;;12.50;;
31652;SDS011;18261;53.648;9.910;2023-11-18T06:40:13;24.35;;;13.52;;
31652;SDS011;18261;53.648;9.910;2023-11-18T06:42:43;23.05;;;13.68;;
31652;SDS011;18261;53.648;9.910;2023-11-18T06:45:12;24.90;;;13.73;;
31652;SDS011;18261;53.648;9.910;2023-11-18T06:47:38;22.63;;;13.80;;
31652;SDS011;18261;53.648;9.910;2023-11-18T06:50:08;24.48;;;14.90;;
31652;SDS011;18261;53.648;9.910;2023-11-18T06:52:37;22.55;;;13.65;;
31652;SDS011;18261;53.648;9.910;2023-11-18T06:55:03;21.55;;;13.07;;
31652;SDS011;18261;53.648;9.910;2023-11-18T06:57:30;21.45;;;13.25;;
31652;SDS011;18261;53.648;9.910;2023-11-18T06:59:57;19.30;;;12.75;;
31652;SDS011;18261;53.648;9.910;2023-11-18T07:02:23;23.70;;;13.55;;
31652;SDS011;18261;53.648;9.910;2023-11-18T07:04:49;22.60;;;14.50;;
31652;SDS011;18261;53.648;9.910;2023-11-18T07:07:15;21.65;;;13.07;;
31652;SDS011;18261;53.648;9.910;2023-11-18T07:09:41;29.27;;;13.88;;
31652;SDS011;18261;53.648;9.910;2023-11-18T07:12:09;23.88;;;13.15;;
31652;SDS011;18261;53.648;9.910;2023-11-18T07:14:35;21.75;;;12.88;;
31652;SDS011;18261;53.648;9.910;2023-11-18T07:17:01;26.45;;;13.10;;
31652;SDS011;18261;53.648;9.910;2023-11-18T07:19:29;29.90;;;17.48;;
31652;SDS011;18261;53.648;9.910;2023-11-18T07:21:58;25.25;;;15.32;;
31652;SDS011;18261;53.648;9.910;2023-11-18T07:24:24;30.40;;;18.40;;
31652;SDS011;18261;53.648;9.910;2023-11-18T07:26:50;36.65;;;18.08;;
31652;SDS011;18261;53.648;9.910;2023-11-18T07:29:16;23.23;;;13.88;;
31652;SDS011;18261;53.648;9.910;2023-11-18T07:31:42;23.55;;;13.80;;
31652;SDS011;18261;53.648;9.910;2023-11-18T07:34:10;26.33;;;13.85;;
31652;SDS011;18261;53.648;9.910;2023-11-18T07:36:36;28.52;;;15.05;;
31652;SDS011;18261;53.648;9.910;2023-11-18T07:39:02;25.67;;;14.38;;
31652;SDS011;18261;53.648;9.910;2023-11-18T07:41:30;24.42;;;13.95;;
31652;SDS011;18261;53.648;9.910;2023-11-18T07:43:56;20.92;;;12.77;;
31652;SDS011;18261;53.648;9.910;2023-11-18T07:46:29;23.55;;;13.18;;
31652;SDS011;18261;53.648;9.910;2023-11-18T07:48:56;25.50;;;14.32;;
31652;SDS011;18261;53.648;9.910;2023-11-18T07:51:23;22.83;;;13.80;;
31652;SDS011;18261;53.648;9.910;2023-11-18T07:53:49;27.88;;;16.33;;
31652;SDS011;18261;53.648;9.910;2023-11-18T07:56:15;34.35;;;16.58;;
31652;SDS011;18261;53.648;9.910;2023-11-18T07:58:42;22.83;;;14.23;;
31652;SDS011;18261;53.648;9.910;2023-11-18T08:01:11;25.60;;;15.38;;
31652;SDS011;18261;53.648;9.910;2023-11-18T08:03:38;29.55;;;15.85;;
31652;SDS011;18261;53.648;9.910;2023-11-18T08:06:06;30.50;;;16.98;;
31652;SDS011;18261;53.648;9.910;2023-11-18T08:08:33;32.83;;;17.75;;
31652;SDS011;18261;53.648;9.910;2023-11-18T08:10:59;38.08;;;18.85;;
31652;SDS011;18261;53.648;9.910;2023-11-18T08:13:25;30.65;;;16.70;;
31652;SDS011;18261;53.648;9.910;2023-11-18T08:15:51;26.55;;;15.27;;
31652;SDS011;18261;53.648;9.910;2023-11-18T08:18:18;30.58;;;15.15;;
31652;SDS011;18261;53.648;9.910;2023-11-18T08:20:46;32.03;;;16.65;;
31652;SDS011;18261;53.648;9.910;2023-11-18T08:23:12;27.88;;;14.27;;
31652;SDS011;18261;53.648;9.910;2023-11-18T08:25:38;26.80;;;14.88;;
31652;SDS011;18261;53.648;9.910;2023-11-18T08:28:05;32.55;;;15.70;;
31652;SDS011;18261;53.648;9.910;2023-11-18T08:30:32;35.67;;;16.25;;
31652;SDS011;18261;53.648;9.910;2023-11-18T08:33:01;28.85;;;15.40;;
31652;SDS011;18261;53.648;9.910;2023-11-18T08:35:29;30.15;;;15.15;;
31652;SDS011;18261;53.648;9.910;2023-11-18T08:37:56;27.13;;;15.65;;
31652;SDS011;18261;53.648;9.910;2023-11-18T08:40:22;31.65;;;16.70;;
31652;SDS011;18261;53.648;9.910;2023-11-18T08:42:48;40.72;;;20.85;;
31652;SDS011;18261;53.648;9.910;2023-11-18T08:45:15;28.20;;;15.95;;
31652;SDS011;18261;53.648;9.910;2023-11-18T08:47:42;24.73;;;14.90;;
31652;SDS011;18261;53.648;9.910;2023-11-18T08:50:09;25.17;;;14.70;;
31652;SDS011;18261;53.648;9.910;2023-11-18T08:52:37;21.52;;;12.65;;
31652;SDS011;18261;53.648;9.910;2023-11-18T08:55:08;24.17;;;13.02;;
31652;SDS011;18261;53.648;9.910;2023-11-18T08:57:48;34.70;;;13.82;;
31652;SDS011;18261;53.648;9.910;2023-11-18T09:00:23;22.63;;;12.07;;
31652;SDS011;18261;53.648;9.910;2023-11-18T09:05:49;19.30;;;12.00;;
31652;SDS011;18261;53.648;9.910;2023-11-18T09:08:32;20.05;;;11.55;;
31652;SDS011;18261;53.648;9.910;2023-11-18T09:11:04;21.30;;;11.75;;
31652;SDS011;18261;53.648;9.910;2023-11-18T09:13:30;36.17;;;18.80;;
31652;SDS011;18261;53.648;9.910;2023-11-18T09:15:57;18.90;;;11.40;;
31652;SDS011;18261;53.648;9.910;2023-11-18T09:18:25;18.92;;;10.70;;
31652;SDS011;18261;53.648;9.910;2023-11-18T09:20:52;18.55;;;11.23;;
31652;SDS011;18261;53.648;9.910;2023-11-18T09:23:19;23.50;;;11.43;;
31652;SDS011;18261;53.648;9.910;2023-11-18T09:25:46;19.55;;;11.60;;
31652;SDS011;18261;53.648;9.910;2023-11-18T09:28:12;22.83;;;11.20;;
31652;SDS011;18261;53.648;9.910;2023-11-18T09:30:39;20.02;;;10.70;;
31652;SDS011;18261;53.648;9.910;2023-11-18T09:35:50;19.77;;;8.45;;
31652;SDS011;18261;53.648;9.910;2023-11-18T09:38:17;25.90;;;9.23;;
31652;SDS011;18261;53.648;9.910;2023-11-18T09:40:43;17.27;;;8.25;;
31652;SDS011;18261;53.648;9.910;2023-11-18T09:43:11;14.25;;;8.20;;
31652;SDS011;18261;53.648;9.910;2023-11-18T09:45:40;26.40;;;13.75;;
31652;SDS011;18261;53.648;9.910;2023-11-18T09:48:08;23.65;;;13.73;;
31652;SDS011;18261;53.648;9.910;2023-11-18T09:50:34;13.38;;;7.00;;
31652;SDS011;18261;53.648;9.910;2023-11-18T09:53:06;9.70;;;6.50;;
31652;SDS011;18261;53.648;9.910;2023-11-18T09:55:42;20.25;;;10.60;;
31652;SDS011;18261;53.648;9.910;2023-11-18T09:58:11;14.70;;;6.38;;
31652;SDS011;18261;53.648;9.910;2023-11-18T10:00:41;12.35;;;6.18;;
31652;SDS011;18261;53.648;9.910;2023-11-18T10:03:08;12.32;;;6.07;;
31652;SDS011;18261;53.648;9.910;2023-11-18T10:05:37;9.38;;;5.82;;
31652;SDS011;18261;53.648;9.910;2023-11-18T10:08:07;12.88;;;6.43;;
31652;SDS011;18261;53.648;9.910;2023-11-18T10:10:33;9.15;;;5.32;;
31652;SDS011;18261;53.648;9.910;2023-11-18T10:13:02;10.35;;;5.25;;
31652;SDS011;18261;53.648;9.910;2023-11-18T10:15:33;8.13;;;4.90;;
31652;SDS011;18261;53.648;9.910;2023-11-18T10:17:59;8.98;;;5.13;;
31652;SDS011;18261;53.648;9.910;2023-11-18T10:20:48;6.85;;;4.43;;
31652;SDS011;18261;53.648;9.910;2023-11-18T10:23:18;6.47;;;4.43;;
31652;SDS011;18261;53.648;9.910;2023-11-18T10:25:46;7.72;;;4.38;;
31652;SDS011;18261;53.648;9.910;2023-11-18T10:28:26;9.38;;;4.45;;
31652;SDS011;18261;53.648;9.910;2023-11-18T10:30:55;12.48;;;4.75;;
31652;SDS011;18261;53.648;9.910;2023-11-18T10:33:24;12.23;;;5.22;;
31652;SDS011;18261;53.648;9.910;2023-11-18T10:35:55;9.50;;;5.45;;
31652;SDS011;18261;53.648;9.910;2023-11-18T10:38:21;13.63;;;5.28;;
31652;SDS011;18261;53.648;9.910;2023-11-18T10:40:53;10.88;;;5.57;;
31652;SDS011;18261;53.648;9.910;2023-11-18T10:43:23;10.85;;;4.90;;
31652;SDS011;18261;53.648;9.910;2023-11-18T10:46:11;10.90;;;5.38;;
31652;SDS011;18261;53.648;9.910;2023-11-18T10:48:45;7.80;;;4.60;;
31652;SDS011;18261;53.648;9.910;2023-11-18T10:51:16;12.73;;;6.07;;
31652;SDS011;18261;53.648;9.910;2023-11-18T10:53:49;9.50;;;4.97;;
31652;SDS011;18261;53.648;9.910;2023-11-18T10:56:28;14.25;;;6.25;;
31652;SDS011;18261;53.648;9.910;2023-11-18T10:58:58;11.50;;;6.30;;
31652;SDS011;18261;53.648;9.910;2023-11-18T11:01:30;13.90;;;6.55;;
31652;SDS011;18261;53.648;9.910;2023-11-18T11:03:57;10.02;;;6.38;;
31652;SDS011;18261;53.648;9.910;2023-11-18T11:06:23;12.40;;;5.13;;
31652;SDS011;18261;53.648;9.910;2023-11-18T11:08:53;9.55;;;5.30;;
31652;SDS011;18261;53.648;9.910;2023-11-18T11:11:19;10.63;;;4.57;;
31652;SDS011;18261;53.648;9.910;2023-11-18T11:13:48;8.10;;;4.63;;
31652;SDS011;18261;53.648;9.910;2023-11-18T11:16:17;10.13;;;4.47;;
31652;SDS011;18261;53.648;9.910;2023-11-18T11:18:47;7.15;;;4.47;;
31652;SDS011;18261;53.648;9.910;2023-11-18T11:21:19;6.95;;;4.30;;
31652;SDS011;18261;53.648;9.910;2023-11-18T11:24:06;8.35;;;4.25;;
31652;SDS011;18261;53.648;9.910;2023-11-18T11:31:39;5.35;;;3.42;;
31652;SDS011;18261;53.648;9.910;2023-11-18T11:34:06;5.95;;;3.70;;
31652;SDS011;18261;53.648;9.910;2023-11-18T11:36:42;8.70;;;4.03;;
31652;SDS011;18261;53.648;9.910;2023-11-18T11:39:12;4.75;;;3.53;;
31652;SDS011;18261;53.648;9.910;2023-11-18T11:41:45;9.48;;;4.05;;
31652;SDS011;18261;53.648;9.910;2023-11-18T11:44:13;8.90;;;4.30;;
31652;SDS011;18261;53.648;9.910;2023-11-18T11:46:39;6.95;;;4.35;;
31652;SDS011;18261;53.648;9.910;2023-11-18T11:49:08;9.05;;;4.55;;
31652;SDS011;18261;53.648;9.910;2023-11-18T11:51:54;14.98;;;6.68;;
31652;SDS011;18261;53.648;9.910;2023-11-18T11:54:23;9.68;;;5.95;;
31652;SDS011;18261;53.648;9.910;2023-11-18T11:56:55;7.50;;;4.53;;
31652;SDS011;18261;53.648;9.910;2023-11-18T12:02:20;8.68;;;4.85;;
31652;SDS011;18261;53.648;9.910;2023-11-18T12:04:51;8.10;;;5.63;;
31652;SDS011;18261;53.648;9.910;2023-11-18T12:07:22;7.90;;;5.28;;
31652;SDS011;18261;53.648;9.910;2023-11-18T12:09:55;9.00;;;5.20;;
31652;SDS011;18261;53.648;9.910;2023-11-18T12:12:23;8.00;;;5.35;;
31652;SDS011;18261;53.648;9.910;2023-11-18T12:14:52;14.07;;;5.80;;
31652;SDS011;18261;53.648;9.910;2023-11-18T12:17:21;17.35;;;6.05;;
31652;SDS011;18261;53.648;9.910;2023-11-18T12:19:49;11.80;;;6.75;;
31652;SDS011;18261;53.648;9.910;2023-11-18T12:22:21;9.60;;;6.28;;
31652;SDS011;18261;53.648;9.910;2023-11-18T12:32:59;11.15;;;7.07;;
31652;SDS011;18261;53.648;9.910;2023-11-18T12:35:51;12.18;;;7.57;;
31652;SDS011;18261;53.648;9.910;2023-11-18T12:41:35;16.83;;;7.25;;
31652;SDS011;18261;53.648;9.910;2023-11-18T12:49:02;13.35;;;7.38;;
31652;SDS011;18261;53.648;9.910;2023-11-18T12:51:30;12.50;;;6.72;;
31652;SDS011;18261;53.648;9.910;2023-11-18T12:53:59;11.13;;;6.20;;
31652;SDS011;18261;53.648;9.910;2023-11-18T12:56:27;10.15;;;6.28;;
31652;SDS011;18261;53.648;9.910;2023-11-18T12:58:55;9.90;;;6.50;;
31652;SDS011;18261;53.648;9.910;2023-11-18T13:01:24;14.07;;;6.10;;
31652;SDS011;18261;53.648;9.910;2023-11-18T13:06:45;19.20;;;6.82;;
31652;SDS011;18261;53.648;9.910;2023-11-18T13:09:11;14.27;;;7.40;;
31652;SDS011;18261;53.648;9.910;2023-11-18T13:12:36;33.05;;;15.20;;
31652;SDS011;18261;53.648;9.910;2023-11-18T13:14:55;21.10;;;8.80;;
31652;SDS011;18261;53.648;9.910;2023-11-18T13:17:21;8.60;;;5.55;;
31652;SDS011;18261;53.648;9.910;2023-11-18T13:19:48;12.07;;;5.95;;
31652;SDS011;18261;53.648;9.910;2023-11-18T13:22:22;19.10;;;9.30;;
31652;SDS011;18261;53.648;9.910;2023-11-18T13:24:51;11.30;;;5.57;;
31652;SDS011;18261;53.648;9.910;2023-11-18T13:27:17;12.88;;;6.32;;
31652;SDS011;18261;53.648;9.910;2023-11-18T13:29:45;8.05;;;5.18;;
31652;SDS011;18261;53.648;9.910;2023-11-18T13:32:14;9.15;;;5.38;;
31652;SDS011;18261;53.648;9.910;2023-11-18T13:34:47;10.32;;;5.47;;
31652;SDS011;18261;53.648;9.910;2023-11-18T13:37:16;9.07;;;5.43;;
31652;SDS011;18261;53.648;9.910;2023-11-18T13:39:56;12.90;;;5.20;;
31652;SDS011;18261;53.648;9.910;2023-11-18T13:42:26;8.60;;;5.03;;
31652;SDS011;18261;53.648;9.910;2023-11-18T13:44:59;9.27;;;5.60;;
31652;SDS011;18261;53.648;9.910;2023-11-18T13:47:26;8.82;;;5.25;;
31652;SDS011;18261;53.648;9.910;2023-11-18T13:49:55;10.65;;;5.43;;
31652;SDS011;18261;53.648;9.910;2023-11-18T13:52:23;10.27;;;6.00;;
31652;SDS011;18261;53.648;9.910;2023-11-18T13:54:51;10.73;;;6.22;;
31652;SDS011;18261;53.648;9.910;2023-11-18T13:57:22;13.23;;;6.03;;
31652;SDS011;18261;53.648;9.910;2023-11-18T13:59:49;11.57;;;5.75;;
31652;SDS011;18261;53.648;9.910;2023-11-18T14:02:15;12.93;;;6.25;;
31652;SDS011;18261;53.648;9.910;2023-11-18T14:04:45;11.07;;;6.38;;
31652;SDS011;18261;53.648;9.910;2023-11-18T14:07:14;10.80;;;6.00;;
31652;SDS011;18261;53.648;9.910;2023-11-18T14:09:42;12.32;;;6.32;;
31652;SDS011;18261;53.648;9.910;2023-11-18T14:12:13;16.17;;;7.18;;
31652;SDS011;18261;53.648;9.910;2023-11-18T14:14:51;12.52;;;6.43;;
31652;SDS011;18261;53.648;9.910;2023-11-18T14:17:28;12.73;;;7.35;;
31652;SDS011;18261;53.648;9.910;2023-11-18T14:19:58;9.57;;;6.68;;
31652;SDS011;18261;53.648;9.910;2023-11-18T14:22:27;15.25;;;6.72;;
31652;SDS011;18261;53.648;9.910;2023-11-18T14:25:05;13.40;;;7.18;;
31652;SDS011;18261;53.648;9.910;2023-11-18T14:27:32;12.30;;;7.53;;
31652;SDS011;18261;53.648;9.910;2023-11-18T14:29:58;14.40;;;7.72;;
31652;SDS011;18261;53.648;9.910;2023-11-18T14:32:25;19.25;;;7.85;;
31652;SDS011;18261;53.648;9.910;2023-11-18T14:34:51;13.88;;;8.02;;
31652;SDS011;18261;53.648;9.910;2023-11-18T14:37:19;10.93;;;7.32;;
31652;SDS011;18261;53.648;9.910;2023-11-18T14:39:45;13.95;;;7.90;;
31652;SDS011;18261;53.648;9.910;2023-11-18T14:42:14;12.57;;;6.93;;
31652;SDS011;18261;53.648;9.910;2023-11-18T14:44:43;15.90;;;7.57;;
31652;SDS011;18261;53.648;9.910;2023-11-18T14:47:25;15.07;;;7.65;;
31652;SDS011;18261;53.648;9.910;2023-11-18T14:49:54;12.25;;;7.13;;
31652;SDS011;18261;53.648;9.910;2023-11-18T14:52:29;12.68;;;7.25;;
31652;SDS011;18261;53.648;9.910;2023-11-18T14:55:00;16.48;;;7.93;;
31652;SDS011;18261;53.648;9.910;2023-11-18T14:57:37;13.75;;;7.47;;
31652;SDS011;18261;53.648;9.910;2023-11-18T15:00:04;12.57;;;6.95;;
31652;SDS011;18261;53.648;9.910;2023-11-18T15:02:58;17.33;;;8.60;;
31652;SDS011;18261;53.648;9.910;2023-11-18T15:05:27;20.60;;;11.10;;
31652;SDS011;18261;53.648;9.910;2023-11-18T15:08:00;14.27;;;7.82;;
31652;SDS011;18261;53.648;9.910;2023-11-18T15:10:50;16.20;;;7.10;;
31652;SDS011;18261;53.648;9.910;2023-11-18T15:15:46;12.70;;;7.43;;
31652;SDS011;18261;53.648;9.910;2023-11-18T15:18:16;15.32;;;7.65;;